Time;durP1;ratioP1;P1;durP2;ratioP2;P2;SDS_P1;SDS_P2;PMS_P1;PMS_P2;Temp;Humidity;BMP_temperature;BMP_pressure;BME280_temperature;BME280_humidity;BME280_pressure;Samples;Min_cycle;Max_cycle;Signal;HPM_P1;HPM_P2
2023/07/26 00:00:26;;;;;;;7.15;6.25;;;;;;;16.38;75.14;100183.47;4129607;28;20038;-69
2023/07/26 00:02:29;;;;;;;10.88;7.20;;;;;;;16.39;75.38;100186.06;4143982;28;20096;-69
2023/07/26 00:04:32;;;;;;;13.13;7.78;;;;;;;16.39;75.31;100195.72;4144010;28;20126;-68
2023/07/26 00:06:34;;;;;;;10.00;6.75;;;;;;;16.39;75.09;100190.47;4144975;28;20038;-68
2023/07/26 00:08:40;;;;;;;12.18;7.43;;;;;;;16.38;75.14;100192.25;4127282;28;20053;-68
2023/07/26 00:10:46;;;;;;;8.65;7.43;;;;;;;16.37;74.83;100195.75;4142647;28;20038;-69
2023/07/26 00:12:49;;;;;;;11.45;6.68;;;;;;;16.33;74.54;100194.03;4144841;28;20076;-68
2023/07/26 00:14:52;;;;;;;12.43;6.63;;;;;;;16.31;74.79;100200.19;4144385;28;20053;-69
2023/07/26 00:16:54;;;;;;;8.43;6.63;;;;;;;16.32;75.22;100196.69;4144073;28;20042;-68
2023/07/26 00:18:58;;;;;;;8.25;5.68;;;;;;;16.32;75.43;100196.69;4148902;28;20034;-68
2023/07/26 00:21:00;;;;;;;17.40;7.30;;;;;;;16.33;75.67;100196.66;4128464;28;20062;-69
2023/07/26 00:23:03;;;;;;;9.48;6.88;;;;;;;16.32;75.29;100194.94;4147717;28;20044;-68
2023/07/26 00:25:07;;;;;;;9.50;6.25;;;;;;;16.34;75.49;100195.78;4145993;28;20125;-69
2023/07/26 00:27:12;;;;;;;9.37;6.53;;;;;;;16.35;75.47;100189.66;4126252;28;20150;-68
2023/07/26 00:29:15;;;;;;;7.60;5.95;;;;;;;16.34;75.43;100198.41;4127406;28;20301;-68
2023/07/26 00:31:18;;;;;;;10.93;6.38;;;;;;;16.35;74.83;100196.66;4126991;28;20499;-68
2023/07/26 00:33:21;;;;;;;11.20;6.78;;;;;;;16.36;75.03;100206.25;4131839;28;20038;-68
2023/07/26 00:35:24;;;;;;;9.73;6.30;;;;;;;16.37;74.93;100208.88;4143900;28;20118;-68
2023/07/26 00:37:27;;;;;;;7.47;6.17;;;;;;;16.39;74.96;100209.69;4122450;28;20043;-68
2023/07/26 00:39:30;;;;;;;11.82;7.15;;;;;;;16.39;75.01;100199.19;4125096;28;20126;-68
2023/07/26 00:41:33;;;;;;;9.63;6.40;;;;;;;16.40;75.06;100205.34;4127894;28;20042;-68
2023/07/26 00:43:38;;;;;;;9.48;7.15;;;;;;;16.37;75.14;100195.75;4126850;28;20070;-69
2023/07/26 00:45:42;;;;;;;9.55;7.40;;;;;;;16.33;74.83;100201.91;4147136;28;20084;-68
2023/07/26 00:47:45;;;;;;;9.73;6.90;;;;;;;16.33;74.99;100209.78;4141599;28;20042;-68
2023/07/26 00:49:48;;;;;;;10.98;8.70;;;;;;;16.34;74.91;100201.03;4129514;28;20038;-68
2023/07/26 00:51:51;;;;;;;15.65;8.20;;;;;;;16.34;74.74;100201.03;4147695;28;20038;-68
2023/07/26 00:53:54;;;;;;;11.75;9.10;;;;;;;16.36;74.89;100206.25;4146273;28;20129;-68
2023/07/26 00:55:59;;;;;;;;;;;;;;;16.26;75.14;100210.75;4130136;28;20039;-67
2023/07/26 00:58:03;;;;;;;14.18;8.60;;;;;;;16.26;75.21;100209.91;4132325;28;20414;-68
2023/07/26 01:00:08;;;;;;;;;;;;;;;16.19;75.49;100222.22;4132348;28;20496;-68
2023/07/26 01:02:11;;;;;;;14.75;10.43;;;;;;;16.19;75.31;100219.59;4136908;28;20016;-67
2023/07/26 01:04:14;;;;;;;12.85;9.98;;;;;;;16.22;75.13;100222.16;4129182;28;20069;-68
2023/07/26 01:06:24;;;;;;;12.40;9.55;;;;;;;16.26;75.14;100223.88;4143382;28;20073;-68
2023/07/26 01:08:40;;;;;;;15.00;10.55;;;;;;;16.27;74.92;100217.75;4144183;28;20073;-67
2023/07/26 01:10:50;;;;;;;18.50;11.70;;;;;;;16.28;75.03;100216.88;4146051;28;20072;-67
2023/07/26 01:12:59;;;;;;;13.55;8.75;;;;;;;16.30;75.50;100217.69;4142464;28;20029;-67
2023/07/26 01:15:07;;;;;;;11.82;8.65;;;;;;;16.34;75.56;100223.75;4127226;28;20511;-68
2023/07/26 01:17:12;;;;;;;13.05;9.70;;;;;;;16.35;75.22;100231.63;4143027;28;20037;-68
2023/07/26 01:19:15;;;;;;;14.27;10.15;;;;;;;16.36;75.41;100225.47;4125694;28;20073;-68
2023/07/26 01:21:18;;;;;;;11.75;8.05;;;;;;;16.35;75.34;100223.78;4128264;28;20123;-67
2023/07/26 01:23:22;;;;;;;11.05;8.20;;;;;;;16.40;75.14;100226.31;4147268;28;20470;-68
2023/07/26 01:25:25;;;;;;;11.95;7.43;;;;;;;16.37;75.19;100221.97;4124984;28;20046;-68
2023/07/26 01:27:28;;;;;;;11.35;6.85;;;;;;;16.37;74.89;100229.00;4142404;28;20463;-67
2023/07/26 01:29:31;;;;;;;10.02;7.25;;;;;;;16.34;74.54;100224.66;4126065;28;20151;-67
2023/07/26 01:31:34;;;;;;;10.85;6.82;;;;;;;16.34;74.45;100229.91;4113215;28;20089;-68
2023/07/26 01:33:38;;;;;;;6.82;5.47;;;;;;;16.34;74.46;100234.25;4127013;28;20504;-68
2023/07/26 01:35:40;;;;;;;8.82;7.03;;;;;;;16.32;74.58;100236.91;4129346;28;20066;-68
2023/07/26 01:37:43;;;;;;;8.65;6.93;;;;;;;16.34;74.74;100237.75;4107833;28;20066;-67
2023/07/26 01:39:49;;;;;;;10.85;7.88;;;;;;;16.35;74.75;100229.00;4125260;28;20130;-67
2023/07/26 01:41:52;;;;;;;8.27;7.25;;;;;;;16.36;74.76;100224.63;4127946;28;20050;-68
2023/07/26 01:43:55;;;;;;;10.47;8.50;;;;;;;16.36;74.90;100229.88;4124531;28;20133;-67
2023/07/26 01:45:59;;;;;;;14.00;10.38;;;;;;;16.36;74.46;100222.84;4133258;28;20138;-67
2023/07/26 01:48:02;;;;;;;14.43;12.45;;;;;;;16.36;74.43;100224.63;4127805;28;20121;-67
2023/07/26 01:50:06;;;;;;;14.85;11.93;;;;;;;16.36;74.19;100228.09;4134449;28;20048;-67
2023/07/26 01:52:09;;;;;;;21.42;11.52;;;;;;;16.35;74.16;100229.00;4146970;28;20026;-67
2023/07/26 01:54:12;;;;;;;11.32;9.55;;;;;;;16.36;73.88;100225.47;4136061;28;20038;-67
2023/07/26 01:56:16;;;;;;;17.77;10.45;;;;;;;16.42;73.56;100228.94;4144152;28;20052;-68
2023/07/26 01:58:19;;;;;;;10.98;8.27;;;;;;;16.36;73.16;100229.88;4130383;28;20401;-67
2023/07/26 02:00:22;;;;;;;10.10;7.05;;;;;;;16.39;72.59;100229.81;4127238;28;20038;-67
2023/07/26 02:02:25;;;;;;;11.52;6.65;;;;;;;16.35;72.77;100221.16;4147244;28;20395;-68
2023/07/26 02:04:28;;;;;;;7.93;4.55;;;;;;;16.34;71.76;100235.13;4127704;28;20089;-68
2023/07/26 02:06:31;;;;;;;7.18;3.83;;;;;;;16.31;71.75;100237.81;4126059;28;20042;-67
2023/07/26 02:08:34;;;;;;;7.15;3.90;;;;;;;16.32;71.72;100243.91;4127455;28;21797;-67
2023/07/26 02:10:37;;;;;;;8.82;5.00;;;;;;;16.31;71.55;100239.53;4121857;28;20105;-67
2023/07/26 02:12:41;;;;;;;6.18;4.35;;;;;;;16.29;71.44;100236.94;4113342;28;20039;-68
2023/07/26 02:14:44;;;;;;;6.25;3.60;;;;;;;16.21;70.51;100238.81;4110342;28;20050;-68
2023/07/26 02:16:47;;;;;;;8.65;4.75;;;;;;;16.19;70.60;100245.81;4141394;28;20103;-68
2023/07/26 02:18:50;;;;;;;9.90;4.88;;;;;;;16.18;70.98;100241.47;4129071;28;20058;-68
2023/07/26 02:20:55;;;;;;;7.00;3.70;;;;;;;16.22;71.30;100246.66;4144547;28;20084;-68
2023/07/26 02:22:57;;;;;;;7.20;4.53;;;;;;;16.25;71.49;100242.25;4136266;28;20038;-68
2023/07/26 02:25:00;;;;;;;10.18;4.75;;;;;;;16.25;71.51;100237.84;4141978;28;20034;-68
2023/07/26 02:27:02;;;;;;;8.15;4.50;;;;;;;16.27;71.88;100246.59;4140615;28;20069;-69
2023/07/26 02:29:07;;;;;;;9.70;5.03;;;;;;;16.25;72.50;100240.47;4130939;28;20137;-68
2023/07/26 02:31:10;;;;;;;10.57;4.30;;;;;;;16.25;73.04;100250.13;4143005;23;20563;-63
2023/07/26 02:33:13;;;;;;;6.03;3.85;;;;;;;16.23;72.84;100240.50;4129543;28;20493;-65
2023/07/26 02:35:16;;;;;;;8.98;4.25;;;;;;;16.22;73.22;100248.41;4119347;28;20133;-63
2023/07/26 02:37:19;;;;;;;9.90;4.18;;;;;;;16.20;73.40;100244.94;4109084;28;20067;-65
2023/07/26 02:39:21;;;;;;;8.95;4.20;;;;;;;16.19;73.46;100243.19;4114406;28;20483;-65
2023/07/26 02:41:25;;;;;;;5.65;3.42;;;;;;;16.16;73.33;100243.22;4120065;28;20035;-65
2023/07/26 02:43:27;;;;;;;7.57;3.85;;;;;;;16.13;73.38;100252.00;4112270;28;20045;-65
2023/07/26 02:45:43;;;;;;;7.47;3.80;;;;;;;16.13;73.20;100261.63;4110155;28;20110;-63
2023/07/26 02:47:46;;;;;;;;;;;;;;;16.01;73.27;100260.03;4125910;28;20046;-63
2023/07/26 02:49:49;;;;;;;7.15;3.75;;;;;;;16.03;73.29;100253.88;4129211;28;19921;-64
2023/07/26 02:51:52;;;;;;;5.55;3.25;;;;;;;16.07;73.35;100261.72;4101592;28;20035;-63
2023/07/26 02:53:54;;;;;;;6.43;3.40;;;;;;;16.11;73.28;100263.41;4099465;28;20397;-63
2023/07/26 02:55:57;;;;;;;6.32;3.08;;;;;;;16.12;73.20;100266.03;4098916;28;20134;-64
2023/07/26 02:58:01;;;;;;;7.70;3.10;;;;;;;16.11;73.28;100271.28;4112449;28;20039;-64
2023/07/26 03:00:05;;;;;;;6.07;4.27;;;;;;;16.01;72.76;100276.63;4109955;28;20042;-64
2023/07/26 03:02:09;;;;;;;5.55;4.13;;;;;;;15.95;73.19;100284.56;4124370;28;20301;-64
2023/07/26 03:04:12;;;;;;;6.47;4.88;;;;;;;15.98;73.04;100284.53;4112706;28;20031;-64
2023/07/26 03:06:15;;;;;;;8.45;4.35;;;;;;;16.01;73.07;100278.38;4123343;28;20042;-64
2023/07/26 03:08:18;;;;;;;5.63;4.55;;;;;;;16.06;73.00;100287.03;4096726;28;20039;-64
2023/07/26 03:10:22;;;;;;;8.23;5.18;;;;;;;16.04;73.05;100279.19;4106621;28;20513;-64
2023/07/26 03:12:25;;;;;;;8.48;5.68;;;;;;;16.04;72.96;100281.81;4105355;28;20042;-64
2023/07/26 03:14:27;;;;;;;11.63;6.25;;;;;;;16.05;72.90;100278.31;4101041;28;20404;-64
2023/07/26 03:16:30;;;;;;;10.95;5.72;;;;;;;16.07;73.14;100277.44;4102901;28;20156;-64
2023/07/26 03:18:35;;;;;;;9.65;6.22;;;;;;;16.08;73.08;100279.16;4116858;28;20437;-63
2023/07/26 03:20:38;;;;;;;10.40;4.90;;;;;;;16.04;73.57;100281.81;4127148;28;20051;-63
2023/07/26 03:22:41;;;;;;;10.02;5.97;;;;;;;16.02;72.97;100280.97;4127991;28;20136;-64
2023/07/26 03:24:43;;;;;;;12.23;5.93;;;;;;;16.00;72.75;100277.53;4110249;28;20105;-64
2023/07/26 03:26:47;;;;;;;12.43;5.43;;;;;;;15.99;72.71;100281.03;4105123;28;20351;-64
2023/07/26 03:28:50;;;;;;;8.60;5.22;;;;;;;15.98;73.55;100286.28;4123965;28;20129;-64
2023/07/26 03:30:53;;;;;;;7.95;5.30;;;;;;;15.94;73.91;100290.69;4121049;28;20066;-64
2023/07/26 03:32:55;;;;;;;7.57;4.30;;;;;;;15.91;72.96;100298.56;4105149;28;20051;-64
2023/07/26 03:35:02;;;;;;;8.60;4.45;;;;;;;15.88;72.21;100298.63;4116232;28;20559;-64
2023/07/26 03:37:06;;;;;;;6.20;3.42;;;;;;;15.84;71.97;100305.66;4121583;28;20053;-64
2023/07/26 03:39:07;;;;;;;9.10;3.72;;;;;;;15.80;71.31;100306.56;4109887;28;20046;-64
2023/07/26 03:41:10;;;;;;;6.05;3.08;;;;;;;15.78;71.01;100305.69;4111326;28;20493;-64
2023/07/26 03:43:13;;;;;;;7.47;3.03;;;;;;;15.75;70.91;100310.94;4105762;28;20057;-64
2023/07/26 03:45:15;;;;;;;4.22;3.00;;;;;;;15.75;70.97;100312.69;4120431;28;20050;-64
2023/07/26 03:47:18;;;;;;;6.93;3.45;;;;;;;15.75;71.09;100317.94;4106414;28;20047;-64
2023/07/26 03:49:21;;;;;;;5.63;3.70;;;;;;;15.71;71.94;100315.34;4103377;28;20066;-64
2023/07/26 03:51:25;;;;;;;5.35;4.10;;;;;;;15.71;72.09;100314.47;4116771;28;20061;-64
2023/07/26 03:53:28;;;;;;;9.07;3.78;;;;;;;15.71;72.47;100317.97;4110585;28;20058;-64
2023/07/26 03:55:30;;;;;;;7.38;3.40;;;;;;;15.73;72.20;100317.09;4108315;28;20046;-64
2023/07/26 03:57:33;;;;;;;6.70;3.38;;;;;;;15.71;72.50;100315.34;4118833;28;20429;-64
2023/07/26 03:59:36;;;;;;;6.90;3.78;;;;;;;15.70;72.91;100317.97;4119289;28;20126;-64
2023/07/26 04:01:39;;;;;;;5.70;3.38;;;;;;;15.67;73.11;100308.38;4119579;28;20052;-64
2023/07/26 04:03:41;;;;;;;5.25;3.63;;;;;;;15.67;72.48;100310.16;4121213;28;20038;-64
2023/07/26 04:05:44;;;;;;;5.60;3.75;;;;;;;15.66;72.19;100306.66;4124972;28;20042;-64
2023/07/26 04:07:50;;;;;;;6.28;3.58;;;;;;;15.64;73.08;100313.66;4104581;28;20684;-64
2023/07/26 04:09:53;;;;;;;8.02;5.07;;;;;;;15.63;72.72;100306.69;4125273;28;20081;-64
2023/07/26 04:11:56;;;;;;;7.75;6.03;;;;;;;15.65;72.63;100306.66;4118801;28;20073;-64
2023/07/26 04:13:59;;;;;;;8.70;5.65;;;;;;;15.67;72.40;100308.38;4123516;28;20045;-64
2023/07/26 04:16:02;;;;;;;9.35;4.90;;;;;;;15.65;72.28;100309.28;4115100;28;20554;-64
2023/07/26 04:18:05;;;;;;;9.05;5.38;;;;;;;15.61;72.42;100316.31;4118748;28;20538;-64
2023/07/26 04:20:09;;;;;;;8.57;5.75;;;;;;;15.60;72.12;100319.81;4117157;28;20042;-63
2023/07/26 04:22:12;;;;;;;8.95;5.43;;;;;;;15.54;72.31;100322.50;4121670;28;20071;-64
2023/07/26 04:24:16;;;;;;;7.90;4.55;;;;;;;15.51;72.02;100317.28;4107320;28;20042;-63
2023/07/26 04:26:19;;;;;;;6.35;4.70;;;;;;;15.49;72.65;100326.88;4112048;28;20392;-63
2023/07/26 04:28:22;;;;;;;9.52;5.43;;;;;;;15.46;72.80;100324.28;4097763;29;20402;-63
2023/07/26 04:30:25;;;;;;;7.78;5.15;;;;;;;15.48;72.73;100328.66;4110929;28;20130;-64
2023/07/26 04:32:28;;;;;;;10.73;5.82;;;;;;;15.56;72.36;100335.56;4122248;28;20094;-64
2023/07/26 04:34:31;;;;;;;8.60;5.15;;;;;;;15.53;72.08;100337.31;4124728;28;20062;-64
2023/07/26 04:36:34;;;;;;;8.25;5.07;;;;;;;15.54;72.76;100335.59;4119632;28;20050;-64
2023/07/26 04:38:36;;;;;;;5.75;4.22;;;;;;;15.44;72.32;100340.03;4113393;28;20043;-64
2023/07/26 04:40:40;;;;;;;7.50;4.03;;;;;;;15.44;72.72;100341.78;4122063;28;20507;-64
2023/07/26 04:42:45;;;;;;;5.35;3.53;;;;;;;15.41;72.83;100342.66;4122382;28;20515;-64
2023/07/26 04:44:48;;;;;;;6.93;3.92;;;;;;;15.36;72.26;100349.69;4119175;28;20122;-64
2023/07/26 04:46:51;;;;;;;9.52;4.15;;;;;;;15.39;72.50;100348.78;4113356;28;20162;-64
2023/07/26 04:48:54;;;;;;;7.75;4.13;;;;;;;15.44;72.65;100341.78;4114648;28;20516;-64
2023/07/26 04:50:57;;;;;;;8.02;4.18;;;;;;;15.47;72.13;100331.28;4120445;28;20051;-64
2023/07/26 04:53:00;;;;;;;6.03;4.25;;;;;;;15.52;73.06;100329.47;4114625;28;20035;-64
2023/07/26 04:55:03;;;;;;;9.98;4.45;;;;;;;15.62;72.23;100336.38;4122766;28;20038;-64
2023/07/26 04:57:09;;;;;;;7.68;3.83;;;;;;;15.67;72.14;100331.97;4107580;28;20091;-64
2023/07/26 04:59:12;;;;;;;6.43;4.10;;;;;;;15.65;72.25;100330.25;4120797;28;20031;-64
2023/07/26 05:01:14;;;;;;;6.63;4.22;;;;;;;15.62;71.58;100333.75;4112201;28;20551;-64
2023/07/26 05:03:17;;;;;;;4.50;3.30;;;;;;;15.64;71.66;100339.00;4122528;28;20042;-64
2023/07/26 05:05:20;;;;;;;10.52;3.97;;;;;;;15.52;71.65;100346.09;4120728;28;20030;-64
2023/07/26 05:07:23;;;;;;;5.55;3.50;;;;;;;15.52;71.96;100351.31;4120076;28;20040;-64
2023/07/26 05:09:26;;;;;;;6.90;3.45;;;;;;;15.55;72.03;100353.06;4110626;28;20035;-64
2023/07/26 05:11:29;;;;;;;6.40;3.65;;;;;;;15.56;72.30;100360.00;4120854;28;20066;-64
2023/07/26 05:13:34;;;;;;;7.80;3.15;;;;;;;15.77;73.97;100352.84;4121044;28;20350;-60
2023/07/26 05:15:37;;;;;;;9.45;3.28;;;;;;;16.13;73.18;100361.28;4098564;29;20126;-60
2023/07/26 05:17:39;;;;;;;6.10;3.67;;;;;;;16.41;71.58;100361.84;4121573;28;20121;-60
2023/07/26 05:19:42;;;;;;;9.15;3.88;;;;;;;16.73;70.49;100355.34;4121984;28;20070;-60
2023/07/26 05:21:45;;;;;;;3.78;2.90;;;;;;;16.89;69.67;100362.19;4120708;28;20508;-60
2023/07/26 05:23:48;;;;;;;7.45;3.67;;;;;;;16.94;69.10;100370.00;4127248;28;20061;-60
2023/07/26 05:25:51;;;;;;;3.83;2.38;;;;;;;16.88;68.66;100367.44;4102181;28;20032;-61
2023/07/26 05:27:55;;;;;;;6.20;3.35;;;;;;;17.00;68.60;100363.78;4129361;28;20129;-60
2023/07/26 05:29:59;;;;;;;9.98;3.00;;;;;;;17.11;68.41;100361.88;4120307;28;20439;-61
2023/07/26 05:32:02;;;;;;;5.40;2.78;;;;;;;17.23;68.03;100361.69;4120406;28;20058;-61
2023/07/26 05:34:05;;;;;;;9.80;4.05;;;;;;;17.38;67.01;100365.84;4127075;28;20132;-60
2023/07/26 05:36:08;;;;;;;5.88;2.80;;;;;;;17.43;66.80;100358.78;4120732;28;20051;-60
2023/07/26 05:38:11;;;;;;;8.95;3.03;;;;;;;17.51;66.60;100360.38;4122604;28;20480;-60
2023/07/26 05:40:13;;;;;;;4.55;3.03;;;;;;;17.53;66.46;100366.50;4121441;28;20039;-62
2023/07/26 05:42:17;;;;;;;3.47;2.80;;;;;;;17.51;66.69;100366.53;4122114;28;20052;-69
2023/07/26 05:44:20;;;;;;;7.22;4.25;;;;;;;17.39;66.92;100364.06;4115873;28;20116;-69
2023/07/26 05:46:24;;;;;;;4.13;3.25;;;;;;;17.19;67.31;100365.25;4113325;28;20138;-69
2023/07/26 05:48:27;;;;;;;7.40;4.43;;;;;;;17.00;67.75;100369.91;4123790;28;20381;-69
2023/07/26 05:50:30;;;;;;;16.25;4.95;;;;;;;16.85;68.09;100370.06;4119353;28;20399;-66
2023/07/26 05:52:32;;;;;;;13.82;4.65;;;;;;;16.71;68.78;100376.38;4124884;28;20049;-68
2023/07/26 05:54:35;;;;;;;12.48;4.40;;;;;;;16.60;69.09;100380.88;4113136;28;20042;-68
2023/07/26 05:56:38;;;;;;;11.45;6.05;;;;;;;16.42;68.77;100375.84;4119563;28;20129;-68
2023/07/26 05:58:41;;;;;;;9.23;4.90;;;;;;;16.30;69.17;100377.72;4127283;28;20042;-67
2023/07/26 06:00:45;;;;;;;12.50;4.80;;;;;;;16.26;69.90;100388.28;4121770;28;20030;-69
2023/07/26 06:02:49;;;;;;;8.35;4.65;;;;;;;16.20;70.45;100382.19;4122680;28;20440;-68
2023/07/26 06:04:53;;;;;;;10.68;5.25;;;;;;;16.19;71.01;100390.06;4109729;28;20049;-70
2023/07/26 06:06:56;;;;;;;8.33;6.03;;;;;;;16.18;71.73;100398.84;4123083;28;20512;-70
2023/07/26 06:08:59;;;;;;;6.18;4.32;;;;;;;16.02;71.32;100396.34;4119281;28;20068;-70
2023/07/26 06:11:02;;;;;;;7.43;4.80;;;;;;;16.01;71.58;100404.25;4120714;28;20038;-70
2023/07/26 06:13:05;;;;;;;8.60;3.60;;;;;;;15.95;70.10;100402.53;4118549;28;20143;-70
2023/07/26 06:15:11;;;;;;;7.15;3.28;;;;;;;15.91;70.02;100400.81;4113480;28;20034;-70
2023/07/26 06:17:14;;;;;;;4.10;2.90;;;;;;;15.87;69.34;100404.34;4100388;28;20521;-70
2023/07/26 06:19:17;;;;;;;7.38;3.33;;;;;;;15.84;69.56;100404.38;4112525;28;20078;-70
2023/07/26 06:21:20;;;;;;;5.47;2.55;;;;;;;15.83;70.08;100407.91;4124891;28;20547;-70
2023/07/26 06:23:23;;;;;;;5.35;3.20;;;;;;;15.80;70.07;100415.75;4125884;28;20042;-70
2023/07/26 06:25:26;;;;;;;7.78;3.58;;;;;;;15.77;70.10;100415.75;4123189;28;20152;-70
2023/07/26 06:27:30;;;;;;;6.20;3.45;;;;;;;15.67;70.58;100422.84;4122688;28;20129;-70
2023/07/26 06:29:33;;;;;;;6.60;3.63;;;;;;;15.59;70.74;100417.63;4119213;28;20046;-70
2023/07/26 06:31:36;;;;;;;8.00;4.35;;;;;;;15.63;71.24;100415.88;4112240;28;20595;-70
2023/07/26 06:33:39;;;;;;;9.73;4.45;;;;;;;15.62;72.01;100427.22;4124414;28;20444;-70
2023/07/26 06:35:43;;;;;;;5.65;4.38;;;;;;;15.63;72.14;100427.22;4124382;28;20117;-70
2023/07/26 06:37:46;;;;;;;6.53;4.28;;;;;;;15.50;72.44;100420.34;4100277;28;20043;-70
2023/07/26 06:39:48;;;;;;;10.20;5.43;;;;;;;15.52;73.14;100429.03;4119733;28;20130;-70
2023/07/26 06:41:51;;;;;;;9.13;6.05;;;;;;;15.54;73.23;100432.53;4121934;28;20409;-69
2023/07/26 06:43:53;;;;;;;12.77;6.30;;;;;;;15.45;72.40;100441.31;4115649;28;20696;-69
2023/07/26 06:45:56;;;;;;;9.35;4.85;;;;;;;15.41;72.68;100433.50;4106942;28;20031;-70
2023/07/26 06:48:00;;;;;;;3.72;3.00;;;;;;;15.39;71.95;100435.25;4112318;28;20042;-70
2023/07/26 06:50:03;;;;;;;4.75;3.08;;;;;;;15.27;71.95;100438.81;4118541;28;20034;-70
2023/07/26 06:52:07;;;;;;;5.03;2.63;;;;;;;15.21;71.47;100433.59;4117950;28;20089;-70
2023/07/26 06:54:09;;;;;;;6.40;2.30;;;;;;;15.21;70.97;100439.69;4119855;28;20133;-70
2023/07/26 06:56:16;;;;;;;5.28;1.90;;;;;;;15.17;70.96;100425.78;4112706;28;20046;-71
2023/07/26 06:58:18;;;;;;;4.68;2.75;;;;;;;15.23;71.71;100429.22;4117384;28;20597;-71
2023/07/26 07:00:21;;;;;;;6.43;3.45;;;;;;;15.24;73.21;100423.09;4120821;28;20125;-71
2023/07/26 07:02:24;;;;;;;6.30;3.03;;;;;;;15.28;73.25;100415.22;4115499;28;20065;-70
2023/07/26 07:04:27;;;;;;;4.80;3.00;;;;;;;15.33;73.00;100408.22;4114800;28;20137;-71
2023/07/26 07:06:30;;;;;;;3.25;2.22;;;;;;;15.30;73.69;100407.34;4118947;28;20030;-70
2023/07/26 07:08:36;;;;;;;4.53;2.40;;;;;;;15.21;73.76;100403.03;4126180;28;20030;-70
2023/07/26 07:10:38;;;;;;;2.92;1.77;;;;;;;15.26;73.09;100410.88;4102212;28;20043;-70
2023/07/26 07:12:41;;;;;;;2.70;1.85;;;;;;;15.29;73.13;100406.50;4119044;28;20497;-70
2023/07/26 07:14:44;;;;;;;3.30;1.70;;;;;;;15.34;73.41;100409.94;4112642;28;20061;-70
2023/07/26 07:16:47;;;;;;;3.28;2.10;;;;;;;15.42;73.48;100411.63;4118685;28;20043;-70
2023/07/26 07:18:50;;;;;;;6.63;2.70;;;;;;;15.47;73.57;100413.34;4112189;28;20043;-70
2023/07/26 07:20:57;;;;;;;6.05;2.45;;;;;;;15.46;73.52;100413.38;4120110;28;20034;-70
2023/07/26 07:23:00;;;;;;;3.70;2.17;;;;;;;15.49;73.90;100410.72;4112632;28;20043;-70
2023/07/26 07:25:05;;;;;;;3.30;2.90;;;;;;;15.49;73.66;100418.59;4107865;28;20136;-70
2023/07/26 07:27:08;;;;;;;3.67;2.58;;;;;;;15.50;73.55;100420.34;4118609;28;20133;-70
2023/07/26 07:29:11;;;;;;;4.75;3.13;;;;;;;15.57;73.90;100426.41;4105074;28;20035;-70
2023/07/26 07:31:14;;;;;;;5.78;3.40;;;;;;;15.64;74.08;100434.22;4110072;28;20038;-70
2023/07/26 07:33:17;;;;;;;5.95;3.20;;;;;;;15.63;73.23;100429.84;4122462;28;20487;-70
2023/07/26 07:35:20;;;;;;;12.35;4.10;;;;;;;15.62;73.26;100425.47;4118934;28;20062;-70
2023/07/26 07:37:23;;;;;;;4.53;3.20;;;;;;;15.68;74.08;100435.94;4116155;28;20050;-70
2023/07/26 07:39:26;;;;;;;10.57;3.03;;;;;;;15.77;73.72;100436.72;4123574;28;20034;-70
2023/07/26 07:41:30;;;;;;;5.03;3.17;;;;;;;15.71;73.61;100433.28;4109325;28;20046;-70
2023/07/26 07:43:33;;;;;;;;;;;;;;;15.77;73.25;100436.72;4123063;28;20085;-70
2023/07/26 07:45:40;;;;;;;6.72;3.80;;;;;;;15.98;73.34;100439.22;4116617;28;19926;-70
2023/07/26 07:47:43;;;;;;;6.05;3.53;;;;;;;16.23;72.42;100439.00;4121211;28;20456;-70
2023/07/26 07:49:47;;;;;;;5.70;3.85;;;;;;;16.43;72.62;100441.44;4110798;28;20097;-70
2023/07/26 07:51:50;;;;;;;4.55;2.92;;;;;;;16.47;72.44;100435.28;4116813;28;20070;-70
2023/07/26 07:53:54;;;;;;;6.80;2.97;;;;;;;16.37;71.79;100442.38;4121679;28;20034;-70
2023/07/26 07:55:56;;;;;;;4.53;3.75;;;;;;;16.43;72.07;100441.44;4122094;28;20069;-70
2023/07/26 07:58:01;;;;;;;5.43;3.20;;;;;;;16.39;71.50;100440.59;4118284;28;20101;-70
2023/07/26 08:00:05;;;;;;;4.43;2.95;;;;;;;16.35;70.92;100436.28;4117830;28;20089;-70
2023/07/26 08:02:13;;;;;;;5.22;3.35;;;;;;;16.39;71.26;100437.97;4115452;28;20076;-71
2023/07/26 08:04:17;;;;;;;4.50;3.30;;;;;;;16.52;71.14;100436.06;4109420;28;20551;-70
2023/07/26 08:06:19;;;;;;;6.65;3.25;;;;;;;16.58;71.07;100436.00;4120547;28;20038;-70
2023/07/26 08:08:22;;;;;;;6.55;3.42;;;;;;;16.81;70.73;100442.78;4116265;28;20042;-70
2023/07/26 08:10:26;;;;;;;3.80;2.80;;;;;;;16.96;71.01;100431.22;4112019;28;20118;-70
2023/07/26 08:12:29;;;;;;;4.25;2.70;;;;;;;17.08;70.41;100433.72;4122802;28;20034;-70
2023/07/26 08:14:33;;;;;;;7.18;2.97;;;;;;;17.15;70.00;100431.00;4116004;28;20039;-70
2023/07/26 08:16:36;;;;;;;6.60;3.15;;;;;;;17.09;69.67;100434.56;4111573;28;20031;-71
2023/07/26 08:18:39;;;;;;;6.22;2.95;;;;;;;17.20;69.14;100440.56;4123226;28;20045;-71
2023/07/26 08:20:43;;;;;;;7.72;3.25;;;;;;;17.26;69.23;100432.59;4116564;28;20093;-70
2023/07/26 08:22:45;;;;;;;7.13;3.13;;;;;;;17.26;69.26;100437.00;4119508;28;20481;-70
2023/07/26 08:24:52;;;;;;;7.18;3.35;;;;;;;17.27;69.25;100447.47;4111473;28;20534;-70
2023/07/26 08:26:55;;;;;;;5.40;3.13;;;;;;;17.34;69.39;100431.63;4119829;28;20039;-70
2023/07/26 08:28:58;;;;;;;4.95;2.90;;;;;;;17.53;68.93;100440.09;4084784;28;20513;-70
2023/07/26 08:31:03;;;;;;;5.22;2.95;;;;;;;17.58;68.03;100431.25;4122925;23;20070;-63
2023/07/26 08:33:05;;;;;;;5.07;3.50;;;;;;;17.59;67.97;100434.75;4112848;28;20090;-63
2023/07/26 08:35:09;;;;;;;4.85;3.30;;;;;;;17.59;67.97;100443.50;4108614;28;20134;-63
2023/07/26 08:37:11;;;;;;;4.97;3.38;;;;;;;17.57;68.33;100437.41;4112970;28;20504;-63
2023/07/26 08:39:13;;;;;;;4.95;3.30;;;;;;;17.56;68.80;100434.78;4113440;28;20125;-62
2023/07/26 08:41:37;;;;;;;6.28;3.92;;;;;;;17.67;69.35;100440.78;4095039;28;20055;-63
2023/07/26 08:43:41;;;;;;;5.07;2.65;;;;;;;17.69;68.84;100440.75;4111200;28;20097;-63
2023/07/26 08:45:45;;;;;;;6.22;5.03;;;;;;;17.66;68.97;100436.38;4111024;28;20042;-63
2023/07/26 08:47:49;;;;;;;7.10;3.28;;;;;;;17.75;68.75;100435.38;4090762;28;20086;-63
2023/07/26 08:49:53;;;;;;;7.07;3.20;;;;;;;17.80;69.40;100438.81;4110049;28;20552;-63
2023/07/26 08:51:58;;;;;;;6.45;3.17;;;;;;;17.76;69.40;100435.34;4107301;28;20039;-63
2023/07/26 08:54:01;;;;;;;6.55;3.35;;;;;;;17.82;69.38;100429.13;4109453;28;20048;-63
2023/07/26 08:56:06;;;;;;;3.90;3.35;;;;;;;17.88;67.92;100438.69;4092706;28;20494;-63
2023/07/26 08:58:09;;;;;;;4.05;2.38;;;;;;;17.87;67.42;100429.03;4107414;28;20412;-63
2023/07/26 09:00:13;;;;;;;9.88;3.33;;;;;;;18.01;67.22;100434.13;4079370;29;20477;-63
2023/07/26 09:02:16;;;;;;;3.97;2.83;;;;;;;18.01;66.06;100428.88;4108273;28;20125;-63
2023/07/26 09:04:22;;;;;;;5.15;2.80;;;;;;;18.00;65.36;100437.66;4112188;28;20043;-63
2023/07/26 09:06:25;;;;;;;7.25;3.03;;;;;;;17.97;65.25;100438.56;4095475;28;20102;-63
2023/07/26 09:08:28;;;;;;;7.75;2.90;;;;;;;18.00;64.96;100437.66;4105185;28;20477;-63
2023/07/26 09:10:32;;;;;;;6.75;2.85;;;;;;;18.21;63.91;100433.75;4091482;28;20103;-63
2023/07/26 09:12:35;;;;;;;3.85;2.20;;;;;;;18.45;62.54;100432.47;4091959;28;20549;-63
2023/07/26 09:14:38;;;;;;;5.60;2.45;;;;;;;18.53;62.94;100435.81;4116240;28;20133;-64
2023/07/26 09:16:40;;;;;;;3.95;2.35;;;;;;;18.64;62.72;100432.97;4113755;28;20035;-63
2023/07/26 09:18:56;;;;;;;3.75;2.28;;;;;;;18.75;62.10;100431.00;4083346;29;20071;-63
2023/07/26 09:21:03;;;;;;;4.03;2.20;;;;;;;18.90;61.52;100431.63;4116218;28;20069;-64
2023/07/26 09:23:08;;;;;;;3.78;2.58;;;;;;;19.03;61.96;100430.47;4115043;28;20441;-63
2023/07/26 09:25:10;;;;;;;;;;;;;;;18.98;61.35;100427.94;4110753;28;20127;-63
2023/07/26 09:27:13;;;;;;;6.00;2.47;;;;;;;19.04;60.58;100424.31;4112419;28;19953;-63
2023/07/26 09:29:16;;;;;;;3.28;1.65;;;;;;;19.24;60.64;100425.63;4114023;28;20077;-63
2023/07/26 09:31:30;;;;;;;4.93;2.15;;;;;;;19.45;61.13;100417.22;4095416;28;20043;-63
2023/07/26 09:33:34;;;;;;;6.22;3.80;;;;;;;19.55;60.64;100415.22;4111943;28;20477;-63